sensor_id;sensor_type;location;lat;lon;timestamp;P1;durP1;ratioP1;P2;durP2;ratioP2
54849;SDS011;47660;51.334;12.396;2023-09-30T00:00:19;6.13;;;0.80;;
54849;SDS011;47660;51.334;12.396;2023-09-30T00:02:45;1.63;;;0.70;;
54849;SDS011;47660;51.334;12.396;2023-09-30T00:05:10;2.72;;;0.70;;
54849;SDS011;47660;51.334;12.396;2023-09-30T00:07:35;2.50;;;0.60;;
54849;SDS011;47660;51.334;12.396;2023-09-30T00:10:01;6.50;;;0.90;;
54849;SDS011;47660;51.334;12.396;2023-09-30T00:12:26;2.47;;;0.70;;
54849;SDS011;47660;51.334;12.396;2023-09-30T00:14:52;2.65;;;1.02;;
54849;SDS011;47660;51.334;12.396;2023-09-30T00:17:18;3.72;;;0.80;;
54849;SDS011;47660;51.334;12.396;2023-09-30T00:19:43;4.80;;;0.88;;
54849;SDS011;47660;51.334;12.396;2023-09-30T00:22:09;4.35;;;0.85;;
54849;SDS011;47660;51.334;12.396;2023-09-30T00:24:35;2.55;;;0.88;;
54849;SDS011;47660;51.334;12.396;2023-09-30T00:27:00;3.22;;;0.70;;
54849;SDS011;47660;51.334;12.396;2023-09-30T00:29:25;2.92;;;0.90;;
54849;SDS011;47660;51.334;12.396;2023-09-30T00:31:51;1.42;;;1.02;;
54849;SDS011;47660;51.334;12.396;2023-09-30T00:34:17;2.45;;;0.80;;
54849;SDS011;47660;51.334;12.396;2023-09-30T00:36:42;3.55;;;0.70;;
54849;SDS011;47660;51.334;12.396;2023-09-30T00:39:07;4.75;;;1.00;;
54849;SDS011;47660;51.334;12.396;2023-09-30T00:41:33;4.38;;;0.95;;
54849;SDS011;47660;51.334;12.396;2023-09-30T00:43:58;3.10;;;1.20;;
54849;SDS011;47660;51.334;12.396;2023-09-30T00:46:31;2.70;;;0.73;;
54849;SDS011;47660;51.334;12.396;2023-09-30T00:48:58;1.80;;;0.90;;
54849;SDS011;47660;51.334;12.396;2023-09-30T00:51:28;4.68;;;0.85;;
54849;SDS011;47660;51.334;12.396;2023-09-30T00:53:58;4.47;;;0.90;;
54849;SDS011;47660;51.334;12.396;2023-09-30T00:56:25;3.30;;;0.98;;
54849;SDS011;47660;51.334;12.396;2023-09-30T00:58:54;3.63;;;0.80;;
54849;SDS011;47660;51.334;12.396;2023-09-30T01:01:21;2.88;;;0.90;;
54849;SDS011;47660;51.334;12.396;2023-09-30T01:03:47;3.40;;;1.02;;
54849;SDS011;47660;51.334;12.396;2023-09-30T01:06:12;5.22;;;1.20;;
54849;SDS011;47660;51.334;12.396;2023-09-30T01:08:38;1.95;;;1.08;;
54849;SDS011;47660;51.334;12.396;2023-09-30T01:11:04;2.08;;;1.15;;
54849;SDS011;47660;51.334;12.396;2023-09-30T01:13:36;2.85;;;1.02;;
54849;SDS011;47660;51.334;12.396;2023-09-30T01:16:03;3.42;;;1.00;;
54849;SDS011;47660;51.334;12.396;2023-09-30T01:18:32;3.00;;;0.85;;
54849;SDS011;47660;51.334;12.396;2023-09-30T01:21:02;2.47;;;0.93;;
54849;SDS011;47660;51.334;12.396;2023-09-30T01:23:30;4.80;;;1.02;;
54849;SDS011;47660;51.334;12.396;2023-09-30T01:26:02;2.30;;;1.10;;
54849;SDS011;47660;51.334;12.396;2023-09-30T01:28:29;1.88;;;0.93;;
54849;SDS011;47660;51.334;12.396;2023-09-30T01:30:55;4.05;;;1.10;;
54849;SDS011;47660;51.334;12.396;2023-09-30T01:33:20;3.00;;;1.48;;
54849;SDS011;47660;51.334;12.396;2023-09-30T01:35:46;3.17;;;0.88;;
54849;SDS011;47660;51.334;12.396;2023-09-30T01:38:11;2.88;;;0.98;;
54849;SDS011;47660;51.334;12.396;2023-09-30T01:40:36;6.93;;;1.35;;
54849;SDS011;47660;51.334;12.396;2023-09-30T01:43:02;4.18;;;1.25;;
54849;SDS011;47660;51.334;12.396;2023-09-30T01:45:28;4.90;;;1.13;;
54849;SDS011;47660;51.334;12.396;2023-09-30T01:47:53;2.35;;;0.90;;
54849;SDS011;47660;51.334;12.396;2023-09-30T01:50:19;3.95;;;1.30;;
54849;SDS011;47660;51.334;12.396;2023-09-30T01:52:45;4.32;;;1.20;;
54849;SDS011;47660;51.334;12.396;2023-09-30T01:55:10;4.28;;;1.27;;
54849;SDS011;47660;51.334;12.396;2023-09-30T01:57:36;5.20;;;1.17;;
54849;SDS011;47660;51.334;12.396;2023-09-30T02:00:01;4.03;;;1.38;;
54849;SDS011;47660;51.334;12.396;2023-09-30T02:02:26;4.32;;;1.50;;
54849;SDS011;47660;51.334;12.396;2023-09-30T02:04:52;3.60;;;1.40;;
54849;SDS011;47660;51.334;12.396;2023-09-30T02:07:18;6.00;;;1.90;;
54849;SDS011;47660;51.334;12.396;2023-09-30T02:09:43;5.53;;;1.30;;
54849;SDS011;47660;51.334;12.396;2023-09-30T02:12:09;4.93;;;1.23;;
54849;SDS011;47660;51.334;12.396;2023-09-30T02:14:34;4.95;;;1.42;;
54849;SDS011;47660;51.334;12.396;2023-09-30T02:17:00;3.72;;;1.42;;
54849;SDS011;47660;51.334;12.396;2023-09-30T02:19:25;3.65;;;1.30;;
54849;SDS011;47660;51.334;12.396;2023-09-30T02:21:52;3.92;;;1.80;;
54849;SDS011;47660;51.334;12.396;2023-09-30T02:24:17;5.47;;;1.70;;
54849;SDS011;47660;51.334;12.396;2023-09-30T02:26:42;4.45;;;1.40;;
54849;SDS011;47660;51.334;12.396;2023-09-30T02:29:08;5.35;;;1.63;;
54849;SDS011;47660;51.334;12.396;2023-09-30T02:31:33;5.13;;;1.45;;
54849;SDS011;47660;51.334;12.396;2023-09-30T02:33:59;5.53;;;1.50;;
54849;SDS011;47660;51.334;12.396;2023-09-30T02:36:24;4.25;;;1.65;;
54849;SDS011;47660;51.334;12.396;2023-09-30T02:38:50;4.30;;;1.40;;
54849;SDS011;47660;51.334;12.396;2023-09-30T02:41:15;3.85;;;1.98;;
54849;SDS011;47660;51.334;12.396;2023-09-30T02:43:41;5.63;;;1.85;;
54849;SDS011;47660;51.334;12.396;2023-09-30T02:46:06;7.60;;;1.80;;
54849;SDS011;47660;51.334;12.396;2023-09-30T02:48:32;5.63;;;1.65;;
54849;SDS011;47660;51.334;12.396;2023-09-30T02:50:57;8.18;;;1.75;;
54849;SDS011;47660;51.334;12.396;2023-09-30T02:53:23;5.47;;;1.60;;
54849;SDS011;47660;51.334;12.396;2023-09-30T02:55:48;5.57;;;1.63;;
54849;SDS011;47660;51.334;12.396;2023-09-30T02:58:14;7.05;;;1.60;;
54849;SDS011;47660;51.334;12.396;2023-09-30T03:00:40;5.88;;;1.80;;
54849;SDS011;47660;51.334;12.396;2023-09-30T03:03:05;3.22;;;1.70;;
54849;SDS011;47660;51.334;12.396;2023-09-30T03:05:31;4.25;;;1.65;;
54849;SDS011;47660;51.334;12.396;2023-09-30T03:07:58;4.88;;;1.73;;
54849;SDS011;47660;51.334;12.396;2023-09-30T03:10:25;5.10;;;1.70;;
54849;SDS011;47660;51.334;12.396;2023-09-30T03:12:55;3.58;;;1.80;;
54849;SDS011;47660;51.334;12.396;2023-09-30T03:15:21;5.07;;;2.10;;
54849;SDS011;47660;51.334;12.396;2023-09-30T03:17:46;8.18;;;2.03;;
54849;SDS011;47660;51.334;12.396;2023-09-30T03:20:12;3.13;;;1.83;;
54849;SDS011;47660;51.334;12.396;2023-09-30T03:22:39;5.28;;;2.30;;
54849;SDS011;47660;51.334;12.396;2023-09-30T03:25:06;3.60;;;2.03;;
54849;SDS011;47660;51.334;12.396;2023-09-30T03:27:33;6.28;;;2.13;;
54849;SDS011;47660;51.334;12.396;2023-09-30T03:29:59;4.80;;;2.13;;
54849;SDS011;47660;51.334;12.396;2023-09-30T03:32:26;8.77;;;2.28;;
54849;SDS011;47660;51.334;12.396;2023-09-30T03:34:52;5.68;;;1.90;;
54849;SDS011;47660;51.334;12.396;2023-09-30T03:37:17;7.22;;;2.42;;
54849;SDS011;47660;51.334;12.396;2023-09-30T03:39:42;7.00;;;2.63;;
54849;SDS011;47660;51.334;12.396;2023-09-30T03:42:08;7.35;;;2.28;;
54849;SDS011;47660;51.334;12.396;2023-09-30T03:44:36;5.72;;;2.05;;
54849;SDS011;47660;51.334;12.396;2023-09-30T03:47:02;7.18;;;2.10;;
54849;SDS011;47660;51.334;12.396;2023-09-30T03:49:28;4.53;;;2.30;;
54849;SDS011;47660;51.334;12.396;2023-09-30T03:51:53;3.78;;;2.10;;
54849;SDS011;47660;51.334;12.396;2023-09-30T03:54:19;5.38;;;2.47;;
54849;SDS011;47660;51.334;12.396;2023-09-30T03:56:45;8.05;;;2.22;;
54849;SDS011;47660;51.334;12.396;2023-09-30T03:59:11;4.80;;;1.98;;
54849;SDS011;47660;51.334;12.396;2023-09-30T04:01:36;5.60;;;2.08;;
54849;SDS011;47660;51.334;12.396;2023-09-30T04:04:06;6.82;;;2.60;;
54849;SDS011;47660;51.334;12.396;2023-09-30T04:06:32;11.48;;;2.80;;
54849;SDS011;47660;51.334;12.396;2023-09-30T04:08:58;6.15;;;1.90;;
54849;SDS011;47660;51.334;12.396;2023-09-30T04:11:24;6.35;;;2.13;;
54849;SDS011;47660;51.334;12.396;2023-09-30T04:13:50;7.55;;;1.90;;
54849;SDS011;47660;51.334;12.396;2023-09-30T04:16:15;7.30;;;2.17;;
54849;SDS011;47660;51.334;12.396;2023-09-30T04:18:43;4.05;;;1.83;;
54849;SDS011;47660;51.334;12.396;2023-09-30T04:21:08;12.73;;;2.45;;
54849;SDS011;47660;51.334;12.396;2023-09-30T04:23:34;5.70;;;1.90;;
54849;SDS011;47660;51.334;12.396;2023-09-30T04:26:01;5.05;;;2.15;;
54849;SDS011;47660;51.334;12.396;2023-09-30T04:28:27;6.43;;;1.90;;
54849;SDS011;47660;51.334;12.396;2023-09-30T04:30:52;5.43;;;1.85;;
54849;SDS011;47660;51.334;12.396;2023-09-30T04:33:18;7.88;;;2.10;;
54849;SDS011;47660;51.334;12.396;2023-09-30T04:35:45;6.68;;;1.83;;
54849;SDS011;47660;51.334;12.396;2023-09-30T04:38:10;5.53;;;1.73;;
54849;SDS011;47660;51.334;12.396;2023-09-30T04:40:36;7.82;;;1.70;;
54849;SDS011;47660;51.334;12.396;2023-09-30T04:43:02;8.25;;;2.17;;
54849;SDS011;47660;51.334;12.396;2023-09-30T04:45:27;5.45;;;1.85;;
54849;SDS011;47660;51.334;12.396;2023-09-30T04:47:53;6.82;;;2.70;;
54849;SDS011;47660;51.334;12.396;2023-09-30T04:50:21;6.72;;;2.15;;
54849;SDS011;47660;51.334;12.396;2023-09-30T04:52:46;7.75;;;2.17;;
54849;SDS011;47660;51.334;12.396;2023-09-30T04:55:13;9.63;;;1.75;;
54849;SDS011;47660;51.334;12.396;2023-09-30T04:57:41;5.25;;;1.73;;
54849;SDS011;47660;51.334;12.396;2023-09-30T05:00:09;5.63;;;2.10;;
54849;SDS011;47660;51.334;12.396;2023-09-30T05:02:36;6.03;;;1.83;;
54849;SDS011;47660;51.334;12.396;2023-09-30T05:05:01;7.82;;;2.28;;
54849;SDS011;47660;51.334;12.396;2023-09-30T05:07:30;6.80;;;1.88;;
54849;SDS011;47660;51.334;12.396;2023-09-30T05:09:55;7.38;;;1.73;;
54849;SDS011;47660;51.334;12.396;2023-09-30T05:12:21;5.53;;;1.70;;
54849;SDS011;47660;51.334;12.396;2023-09-30T05:14:46;9.40;;;1.60;;
54849;SDS011;47660;51.334;12.396;2023-09-30T05:17:12;10.82;;;1.92;;
54849;SDS011;47660;51.334;12.396;2023-09-30T05:19:38;10.55;;;1.98;;
54849;SDS011;47660;51.334;12.396;2023-09-30T05:22:03;9.05;;;2.15;;
54849;SDS011;47660;51.334;12.396;2023-09-30T05:24:30;8.50;;;1.50;;
54849;SDS011;47660;51.334;12.396;2023-09-30T05:26:55;9.85;;;2.72;;
54849;SDS011;47660;51.334;12.396;2023-09-30T05:29:20;5.20;;;2.08;;
54849;SDS011;47660;51.334;12.396;2023-09-30T05:31:47;6.38;;;1.80;;
54849;SDS011;47660;51.334;12.396;2023-09-30T05:34:12;4.28;;;1.63;;
54849;SDS011;47660;51.334;12.396;2023-09-30T05:36:38;9.82;;;2.00;;
54849;SDS011;47660;51.334;12.396;2023-09-30T05:39:03;7.63;;;2.55;;
54849;SDS011;47660;51.334;12.396;2023-09-30T05:41:29;7.60;;;1.90;;
54849;SDS011;47660;51.334;12.396;2023-09-30T05:43:55;4.63;;;1.45;;
54849;SDS011;47660;51.334;12.396;2023-09-30T05:46:23;8.60;;;2.05;;
54849;SDS011;47660;51.334;12.396;2023-09-30T05:48:49;11.18;;;2.35;;
54849;SDS011;47660;51.334;12.396;2023-09-30T05:51:14;6.15;;;2.40;;
54849;SDS011;47660;51.334;12.396;2023-09-30T05:53:40;7.63;;;2.30;;
54849;SDS011;47660;51.334;12.396;2023-09-30T05:56:06;8.02;;;2.05;;
54849;SDS011;47660;51.334;12.396;2023-09-30T05:58:32;9.60;;;2.05;;
54849;SDS011;47660;51.334;12.396;2023-09-30T06:00:57;10.93;;;2.28;;
54849;SDS011;47660;51.334;12.396;2023-09-30T06:03:22;12.98;;;2.20;;
54849;SDS011;47660;51.334;12.396;2023-09-30T06:05:48;8.60;;;2.03;;
54849;SDS011;47660;51.334;12.396;2023-09-30T06:08:13;10.80;;;2.50;;
54849;SDS011;47660;51.334;12.396;2023-09-30T06:10:39;12.05;;;2.35;;
54849;SDS011;47660;51.334;12.396;2023-09-30T06:13:07;10.98;;;2.63;;
54849;SDS011;47660;51.334;12.396;2023-09-30T06:15:33;6.70;;;1.77;;
54849;SDS011;47660;51.334;12.396;2023-09-30T06:18:01;9.63;;;2.33;;
54849;SDS011;47660;51.334;12.396;2023-09-30T06:20:29;7.55;;;2.30;;
54849;SDS011;47660;51.334;12.396;2023-09-30T06:22:55;6.00;;;1.85;;
54849;SDS011;47660;51.334;12.396;2023-09-30T06:25:21;6.63;;;2.33;;
54849;SDS011;47660;51.334;12.396;2023-09-30T06:27:48;7.38;;;1.80;;
54849;SDS011;47660;51.334;12.396;2023-09-30T06:30:15;6.35;;;2.42;;
54849;SDS011;47660;51.334;12.396;2023-09-30T06:32:41;4.53;;;1.98;;
54849;SDS011;47660;51.334;12.396;2023-09-30T06:35:07;5.30;;;2.08;;
54849;SDS011;47660;51.334;12.396;2023-09-30T06:37:35;7.10;;;1.70;;
54849;SDS011;47660;51.334;12.396;2023-09-30T06:40:02;6.68;;;1.73;;
54849;SDS011;47660;51.334;12.396;2023-09-30T06:42:29;9.65;;;1.60;;
54849;SDS011;47660;51.334;12.396;2023-09-30T06:44:54;7.07;;;1.77;;
54849;SDS011;47660;51.334;12.396;2023-09-30T06:47:19;5.97;;;1.58;;
54849;SDS011;47660;51.334;12.396;2023-09-30T06:49:45;7.30;;;2.08;;
54849;SDS011;47660;51.334;12.396;2023-09-30T06:52:11;9.00;;;1.55;;
54849;SDS011;47660;51.334;12.396;2023-09-30T06:54:37;6.25;;;1.63;;
54849;SDS011;47660;51.334;12.396;2023-09-30T06:57:02;4.53;;;1.33;;
54849;SDS011;47660;51.334;12.396;2023-09-30T06:59:27;6.57;;;1.60;;
54849;SDS011;47660;51.334;12.396;2023-09-30T07:01:53;4.00;;;1.20;;
54849;SDS011;47660;51.334;12.396;2023-09-30T07:04:19;6.05;;;1.60;;
54849;SDS011;47660;51.334;12.396;2023-09-30T07:06:46;8.23;;;1.90;;
54849;SDS011;47660;51.334;12.396;2023-09-30T07:09:12;6.25;;;1.73;;
54849;SDS011;47660;51.334;12.396;2023-09-30T07:11:37;3.17;;;1.38;;
54849;SDS011;47660;51.334;12.396;2023-09-30T07:14:02;2.92;;;1.48;;
54849;SDS011;47660;51.334;12.396;2023-09-30T07:16:28;4.63;;;1.60;;
54849;SDS011;47660;51.334;12.396;2023-09-30T07:18:53;5.57;;;1.95;;
54849;SDS011;47660;51.334;12.396;2023-09-30T07:21:19;9.10;;;1.60;;
54849;SDS011;47660;51.334;12.396;2023-09-30T07:23:44;6.10;;;1.92;;
54849;SDS011;47660;51.334;12.396;2023-09-30T07:26:09;4.80;;;1.50;;
54849;SDS011;47660;51.334;12.396;2023-09-30T07:28:35;5.30;;;1.65;;
54849;SDS011;47660;51.334;12.396;2023-09-30T07:31:00;4.25;;;1.75;;
54849;SDS011;47660;51.334;12.396;2023-09-30T07:33:26;4.38;;;1.20;;
54849;SDS011;47660;51.334;12.396;2023-09-30T07:35:51;5.85;;;1.60;;
54849;SDS011;47660;51.334;12.396;2023-09-30T07:38:17;6.70;;;1.52;;
54849;SDS011;47660;51.334;12.396;2023-09-30T07:40:42;6.50;;;2.08;;
54849;SDS011;47660;51.334;12.396;2023-09-30T07:43:08;3.85;;;1.40;;
54849;SDS011;47660;51.334;12.396;2023-09-30T07:45:33;8.63;;;1.85;;
54849;SDS011;47660;51.334;12.396;2023-09-30T07:47:59;4.82;;;1.23;;
54849;SDS011;47660;51.334;12.396;2023-09-30T07:50:24;4.20;;;1.13;;
54849;SDS011;47660;51.334;12.396;2023-09-30T07:52:50;5.00;;;1.52;;
54849;SDS011;47660;51.334;12.396;2023-09-30T07:55:15;3.50;;;1.00;;
54849;SDS011;47660;51.334;12.396;2023-09-30T07:57:41;10.05;;;1.45;;
54849;SDS011;47660;51.334;12.396;2023-09-30T08:00:11;9.13;;;1.50;;
54849;SDS011;47660;51.334;12.396;2023-09-30T08:02:39;7.43;;;1.30;;
54849;SDS011;47660;51.334;12.396;2023-09-30T08:05:05;7.00;;;1.30;;
54849;SDS011;47660;51.334;12.396;2023-09-30T08:07:31;6.10;;;1.50;;
54849;SDS011;47660;51.334;12.396;2023-09-30T08:09:56;5.88;;;1.60;;
54849;SDS011;47660;51.334;12.396;2023-09-30T08:12:22;7.15;;;1.42;;
54849;SDS011;47660;51.334;12.396;2023-09-30T08:14:47;9.02;;;1.48;;
54849;SDS011;47660;51.334;12.396;2023-09-30T08:17:13;10.77;;;2.65;;
54849;SDS011;47660;51.334;12.396;2023-09-30T08:19:39;3.38;;;1.40;;
54849;SDS011;47660;51.334;12.396;2023-09-30T08:22:05;4.32;;;1.75;;
54849;SDS011;47660;51.334;12.396;2023-09-30T08:24:31;8.85;;;1.65;;
54849;SDS011;47660;51.334;12.396;2023-09-30T08:26:57;3.58;;;1.23;;
54849;SDS011;47660;51.334;12.396;2023-09-30T08:29:22;4.75;;;1.52;;
54849;SDS011;47660;51.334;12.396;2023-09-30T08:31:47;4.30;;;1.20;;
54849;SDS011;47660;51.334;12.396;2023-09-30T08:34:15;5.80;;;1.70;;
54849;SDS011;47660;51.334;12.396;2023-09-30T08:36:42;3.80;;;1.33;;
54849;SDS011;47660;51.334;12.396;2023-09-30T08:39:07;9.07;;;1.63;;
54849;SDS011;47660;51.334;12.396;2023-09-30T08:41:33;3.57;;;1.17;;
54849;SDS011;47660;51.334;12.396;2023-09-30T08:44:02;4.20;;;1.42;;
54849;SDS011;47660;51.334;12.396;2023-09-30T08:46:32;6.60;;;1.60;;
54849;SDS011;47660;51.334;12.396;2023-09-30T08:49:00;5.20;;;1.42;;
54849;SDS011;47660;51.334;12.396;2023-09-30T08:51:28;3.47;;;1.48;;
54849;SDS011;47660;51.334;12.396;2023-09-30T08:53:54;6.78;;;1.40;;
54849;SDS011;47660;51.334;12.396;2023-09-30T08:56:22;5.63;;;1.38;;
54849;SDS011;47660;51.334;12.396;2023-09-30T08:58:52;4.65;;;1.30;;
54849;SDS011;47660;51.334;12.396;2023-09-30T09:01:21;3.88;;;1.17;;
54849;SDS011;47660;51.334;12.396;2023-09-30T09:03:47;5.38;;;1.48;;
54849;SDS011;47660;51.334;12.396;2023-09-30T09:06:17;4.20;;;1.27;;
54849;SDS011;47660;51.334;12.396;2023-09-30T09:08:43;4.28;;;1.50;;
54849;SDS011;47660;51.334;12.396;2023-09-30T09:11:08;5.03;;;1.23;;
54849;SDS011;47660;51.334;12.396;2023-09-30T09:13:47;4.07;;;1.40;;
54849;SDS011;47660;51.334;12.396;2023-09-30T09:16:20;5.82;;;1.70;;
54849;SDS011;47660;51.334;12.396;2023-09-30T09:18:47;2.80;;;1.30;;
54849;SDS011;47660;51.334;12.396;2023-09-30T09:21:22;4.75;;;1.63;;
54849;SDS011;47660;51.334;12.396;2023-09-30T09:23:49;4.13;;;1.30;;
54849;SDS011;47660;51.334;12.396;2023-09-30T09:26:28;5.65;;;1.90;;
54849;SDS011;47660;51.334;12.396;2023-09-30T09:29:00;6.72;;;1.40;;
54849;SDS011;47660;51.334;12.396;2023-09-30T09:31:28;4.68;;;1.40;;
54849;SDS011;47660;51.334;12.396;2023-09-30T09:33:59;4.40;;;1.35;;
54849;SDS011;47660;51.334;12.396;2023-09-30T09:36:38;6.53;;;1.60;;
54849;SDS011;47660;51.334;12.396;2023-09-30T09:39:05;3.47;;;1.20;;
54849;SDS011;47660;51.334;12.396;2023-09-30T09:41:31;4.15;;;1.40;;
54849;SDS011;47660;51.334;12.396;2023-09-30T09:43:56;3.75;;;1.40;;
54849;SDS011;47660;51.334;12.396;2023-09-30T09:46:24;5.18;;;1.33;;
54849;SDS011;47660;51.334;12.396;2023-09-30T09:48:50;3.25;;;1.25;;
54849;SDS011;47660;51.334;12.396;2023-09-30T09:51:18;5.30;;;1.30;;
54849;SDS011;47660;51.334;12.396;2023-09-30T09:53:43;3.47;;;1.15;;
54849;SDS011;47660;51.334;12.396;2023-09-30T09:56:09;2.65;;;1.08;;
54849;SDS011;47660;51.334;12.396;2023-09-30T09:58:35;6.45;;;1.30;;
54849;SDS011;47660;51.334;12.396;2023-09-30T10:01:03;7.47;;;1.48;;
54849;SDS011;47660;51.334;12.396;2023-09-30T10:03:32;8.40;;;1.30;;
54849;SDS011;47660;51.334;12.396;2023-09-30T10:05:58;6.15;;;1.17;;
54849;SDS011;47660;51.334;12.396;2023-09-30T10:08:31;3.50;;;1.60;;
54849;SDS011;47660;51.334;12.396;2023-09-30T10:19:10;3.90;;;1.10;;
54849;SDS011;47660;51.334;12.396;2023-09-30T10:21:36;3.20;;;1.10;;
54849;SDS011;47660;51.334;12.396;2023-09-30T10:40:48;4.93;;;1.27;;
54849;SDS011;47660;51.334;12.396;2023-09-30T10:46:01;3.00;;;1.10;;
54849;SDS011;47660;51.334;12.396;2023-09-30T10:50:53;4.63;;;1.10;;
54849;SDS011;47660;51.334;12.396;2023-09-30T10:53:20;4.20;;;1.20;;
54849;SDS011;47660;51.334;12.396;2023-09-30T10:55:47;2.80;;;1.20;;
54849;SDS011;47660;51.334;12.396;2023-09-30T10:58:19;3.47;;;0.98;;
54849;SDS011;47660;51.334;12.396;2023-09-30T11:00:54;4.20;;;1.10;;
54849;SDS011;47660;51.334;12.396;2023-09-30T11:05:49;3.10;;;1.00;;
54849;SDS011;47660;51.334;12.396;2023-09-30T11:08:18;3.13;;;1.17;;
54849;SDS011;47660;51.334;12.396;2023-09-30T11:10:48;3.05;;;1.10;;
54849;SDS011;47660;51.334;12.396;2023-09-30T11:13:15;4.97;;;1.23;;
54849;SDS011;47660;51.334;12.396;2023-09-30T11:15:41;3.30;;;1.30;;
54849;SDS011;47660;51.334;12.396;2023-09-30T11:18:13;5.65;;;1.00;;
54849;SDS011;47660;51.334;12.396;2023-09-30T11:20:43;4.20;;;1.00;;
54849;SDS011;47660;51.334;12.396;2023-09-30T11:23:10;3.40;;;1.10;;
54849;SDS011;47660;51.334;12.396;2023-09-30T11:25:37;6.47;;;1.85;;
54849;SDS011;47660;51.334;12.396;2023-09-30T11:30:59;3.85;;;1.23;;
54849;SDS011;47660;51.334;12.396;2023-09-30T11:38:30;4.72;;;1.40;;
54849;SDS011;47660;51.334;12.396;2023-09-30T11:40:58;3.88;;;1.35;;
54849;SDS011;47660;51.334;12.396;2023-09-30T11:43:30;6.00;;;1.42;;
54849;SDS011;47660;51.334;12.396;2023-09-30T11:46:08;4.15;;;1.17;;
54849;SDS011;47660;51.334;12.396;2023-09-30T11:48:36;2.03;;;0.88;;
54849;SDS011;47660;51.334;12.396;2023-09-30T11:51:21;3.15;;;1.33;;
54849;SDS011;47660;51.334;12.396;2023-09-30T11:53:49;2.50;;;0.85;;
54849;SDS011;47660;51.334;12.396;2023-09-30T11:56:15;3.85;;;0.90;;
54849;SDS011;47660;51.334;12.396;2023-09-30T11:58:41;3.70;;;1.00;;
54849;SDS011;47660;51.334;12.396;2023-09-30T12:01:06;7.15;;;1.30;;
54849;SDS011;47660;51.334;12.396;2023-09-30T12:03:32;3.70;;;1.02;;
54849;SDS011;47660;51.334;12.396;2023-09-30T12:06:01;2.97;;;1.02;;
54849;SDS011;47660;51.334;12.396;2023-09-30T12:08:27;3.35;;;1.00;;
54849;SDS011;47660;51.334;12.396;2023-09-30T12:10:54;3.10;;;0.90;;
54849;SDS011;47660;51.334;12.396;2023-09-30T12:13:20;4.05;;;1.25;;
54849;SDS011;47660;51.334;12.396;2023-09-30T12:15:45;5.55;;;1.50;;
54849;SDS011;47660;51.334;12.396;2023-09-30T12:18:11;3.30;;;1.15;;
54849;SDS011;47660;51.334;12.396;2023-09-30T12:20:38;4.85;;;1.33;;
54849;SDS011;47660;51.334;12.396;2023-09-30T12:23:06;10.50;;;3.53;;
54849;SDS011;47660;51.334;12.396;2023-09-30T12:25:32;7.68;;;3.58;;
54849;SDS011;47660;51.334;12.396;2023-09-30T12:27:58;6.35;;;2.05;;
54849;SDS011;47660;51.334;12.396;2023-09-30T12:30:24;5.45;;;1.98;;
54849;SDS011;47660;51.334;12.396;2023-09-30T12:32:52;4.25;;;1.30;;
54849;SDS011;47660;51.334;12.396;2023-09-30T12:35:20;2.80;;;0.98;;
54849;SDS011;47660;51.334;12.396;2023-09-30T12:37:46;5.22;;;1.55;;
54849;SDS011;47660;51.334;12.396;2023-09-30T12:40:11;2.57;;;1.20;;
54849;SDS011;47660;51.334;12.396;2023-09-30T12:42:38;4.15;;;1.02;;
54849;SDS011;47660;51.334;12.396;2023-09-30T12:45:03;2.53;;;0.90;;
54849;SDS011;47660;51.334;12.396;2023-09-30T12:47:30;4.00;;;0.93;;
54849;SDS011;47660;51.334;12.396;2023-09-30T12:49:56;4.10;;;1.08;;
54849;SDS011;47660;51.334;12.396;2023-09-30T12:52:22;4.38;;;1.25;;
54849;SDS011;47660;51.334;12.396;2023-09-30T12:54:49;4.63;;;1.23;;
54849;SDS011;47660;51.334;12.396;2023-09-30T12:57:14;4.88;;;1.50;;
54849;SDS011;47660;51.334;12.396;2023-09-30T12:59:42;4.10;;;1.60;;
54849;SDS011;47660;51.334;12.396;2023-09-30T13:02:18;3.28;;;1.10;;
54849;SDS011;47660;51.334;12.396;2023-09-30T13:04:44;3.40;;;1.20;;
54849;SDS011;47660;51.334;12.396;2023-09-30T13:07:11;7.25;;;1.35;;
54849;SDS011;47660;51.334;12.396;2023-09-30T13:09:40;3.53;;;0.90;;
54849;SDS011;47660;51.334;12.396;2023-09-30T13:12:05;3.75;;;1.20;;
54849;SDS011;47660;51.334;12.396;2023-09-30T13:14:31;2.60;;;0.80;;
54849;SDS011;47660;51.334;12.396;2023-09-30T13:16:57;5.97;;;1.20;;
54849;SDS011;47660;51.334;12.396;2023-09-30T13:19:23;4.03;;;1.13;;
54849;SDS011;47660;51.334;12.396;2023-09-30T13:21:48;4.38;;;0.98;;
54849;SDS011;47660;51.334;12.396;2023-09-30T13:24:15;5.93;;;1.85;;
54849;SDS011;47660;51.334;12.396;2023-09-30T13:26:41;5.32;;;1.10;;
54849;SDS011;47660;51.334;12.396;2023-09-30T13:29:06;5.57;;;1.25;;
54849;SDS011;47660;51.334;12.396;2023-09-30T13:31:35;5.32;;;1.08;;
54849;SDS011;47660;51.334;12.396;2023-09-30T13:34:06;5.07;;;1.30;;
54849;SDS011;47660;51.334;12.396;2023-09-30T13:36:32;2.35;;;1.00;;
54849;SDS011;47660;51.334;12.396;2023-09-30T13:38:57;9.23;;;0.93;;
54849;SDS011;47660;51.334;12.396;2023-09-30T13:41:23;5.00;;;1.10;;
54849;SDS011;47660;51.334;12.396;2023-09-30T13:43:48;3.22;;;1.13;;
54849;SDS011;47660;51.334;12.396;2023-09-30T13:46:13;4.82;;;1.08;;
54849;SDS011;47660;51.334;12.396;2023-09-30T13:48:39;8.90;;;1.42;;
54849;SDS011;47660;51.334;12.396;2023-09-30T13:51:10;2.95;;;0.93;;
54849;SDS011;47660;51.334;12.396;2023-09-30T13:53:36;8.15;;;1.40;;
54849;SDS011;47660;51.334;12.396;2023-09-30T13:56:02;3.45;;;1.02;;
54849;SDS011;47660;51.334;12.396;2023-09-30T13:58:31;6.05;;;0.95;;
54849;SDS011;47660;51.334;12.396;2023-09-30T14:00:56;3.70;;;1.65;;
54849;SDS011;47660;51.334;12.396;2023-09-30T14:03:24;5.32;;;1.20;;
54849;SDS011;47660;51.334;12.396;2023-09-30T14:05:50;2.65;;;0.80;;
54849;SDS011;47660;51.334;12.396;2023-09-30T14:08:16;5.53;;;1.13;;
54849;SDS011;47660;51.334;12.396;2023-09-30T14:10:41;4.22;;;1.77;;
54849;SDS011;47660;51.334;12.396;2023-09-30T14:13:09;4.05;;;1.05;;
54849;SDS011;47660;51.334;12.396;2023-09-30T14:15:35;2.67;;;0.90;;
54849;SDS011;47660;51.334;12.396;2023-09-30T14:18:03;5.50;;;1.00;;
54849;SDS011;47660;51.334;12.396;2023-09-30T14:20:29;5.97;;;0.90;;
54849;SDS011;47660;51.334;12.396;2023-09-30T14:22:55;4.57;;;0.90;;
54849;SDS011;47660;51.334;12.396;2023-09-30T14:25:20;3.78;;;1.23;;
54849;SDS011;47660;51.334;12.396;2023-09-30T14:27:47;3.40;;;0.82;;
54849;SDS011;47660;51.334;12.396;2023-09-30T14:30:12;3.42;;;1.02;;
54849;SDS011;47660;51.334;12.396;2023-09-30T14:32:38;3.50;;;0.90;;
54849;SDS011;47660;51.334;12.396;2023-09-30T14:35:05;4.65;;;1.05;;
54849;SDS011;47660;51.334;12.396;2023-09-30T14:37:31;2.80;;;0.85;;
54849;SDS011;47660;51.334;12.396;2023-09-30T14:39:59;4.13;;;0.90;;
54849;SDS011;47660;51.334;12.396;2023-09-30T14:42:24;4.70;;;0.93;;
54849;SDS011;47660;51.334;12.396;2023-09-30T14:44:49;4.18;;;0.85;;
54849;SDS011;47660;51.334;12.396;2023-09-30T14:47:15;6.20;;;1.45;;
54849;SDS011;47660;51.334;12.396;2023-09-30T14:49:40;2.35;;;1.08;;
54849;SDS011;47660;51.334;12.396;2023-09-30T14:52:06;5.75;;;1.02;;
54849;SDS011;47660;51.334;12.396;2023-09-30T14:54:31;3.10;;;1.02;;
54849;SDS011;47660;51.334;12.396;2023-09-30T14:56:57;2.65;;;1.10;;
54849;SDS011;47660;51.334;12.396;2023-09-30T14:59:23;3.33;;;0.90;;
54849;SDS011;47660;51.334;12.396;2023-09-30T15:01:48;3.35;;;0.70;;
54849;SDS011;47660;51.334;12.396;2023-09-30T15:04:14;2.72;;;0.90;;
54849;SDS011;47660;51.334;12.396;2023-09-30T15:06:42;2.15;;;0.80;;
54849;SDS011;47660;51.334;12.396;2023-09-30T15:09:08;2.08;;;0.73;;